createdAt,value
2022-10-22T00:00:14.260Z,2.95
2022-10-22T00:02:42.131Z,2.03
2022-10-22T00:05:10.263Z,2.05
2022-10-22T00:07:38.316Z,2.05
2022-10-22T00:10:07.321Z,1.95
2022-10-22T00:12:34.392Z,2.35
2022-10-22T00:15:01.292Z,2.17
2022-10-22T00:17:28.161Z,2.10
2022-10-22T00:19:54.990Z,3.47
2022-10-22T00:22:21.851Z,1.80
2022-10-22T00:24:48.748Z,3.35
2022-10-22T00:27:15.952Z,2.47
2022-10-22T00:29:42.886Z,2.20
2022-10-22T00:32:09.774Z,2.63
2022-10-22T00:34:36.840Z,2.72
2022-10-22T00:37:04.006Z,2.35
2022-10-22T00:39:30.985Z,3.03
2022-10-22T00:41:58.824Z,3.05
2022-10-22T00:45:02.839Z,3.22
2022-10-22T00:47:36.528Z,3.25
2022-10-22T00:50:08.257Z,2.80
2022-10-22T00:52:36.606Z,2.88
2022-10-22T00:55:05.009Z,4.82
2022-10-22T00:57:32.513Z,3.08
2022-10-22T00:59:59.411Z,3.85
2022-10-22T01:02:26.597Z,3.15
2022-10-22T01:04:53.734Z,3.25
2022-10-22T01:07:22.744Z,4.30
2022-10-22T01:10:20.109Z,5.15
2022-10-22T01:13:21.056Z,4.40
2022-10-22T01:15:57.609Z,3.75
2022-10-22T01:19:25.151Z,4.18
2022-10-22T01:22:21.411Z,2.80
2022-10-22T01:25:11.206Z,3.75
2022-10-22T01:28:19.020Z,4.43
2022-10-22T01:30:49.071Z,3.15
2022-10-22T01:33:19.655Z,3.28
2022-10-22T01:35:46.751Z,3.25
2022-10-22T01:38:21.873Z,4.55
2022-10-22T01:40:51.119Z,5.28
2022-10-22T01:43:18.362Z,3.80
2022-10-22T01:45:51.932Z,4.55
2022-10-22T01:48:36.491Z,3.55
2022-10-22T01:51:34.312Z,4.07
2022-10-22T01:54:33.200Z,3.50
2022-10-22T01:57:35.093Z,3.78
2022-10-22T02:00:12.842Z,3.00
2022-10-22T02:02:51.618Z,3.15
2022-10-22T02:05:36.718Z,7.75
2022-10-22T02:08:12.127Z,9.23
2022-10-22T02:10:42.566Z,4.47
2022-10-22T02:13:17.683Z,2.92
2022-10-22T02:15:46.889Z,3.45
2022-10-22T02:18:15.370Z,4.05
2022-10-22T02:20:42.803Z,11.23
2022-10-22T02:23:11.304Z,2.58
2022-10-22T02:25:47.650Z,3.65
2022-10-22T02:28:44.717Z,4.15
2022-10-22T02:31:22.390Z,3.92
2022-10-22T02:33:54.386Z,9.77
2022-10-22T02:36:23.715Z,8.75
2022-10-22T02:38:52.613Z,5.90
2022-10-22T02:41:20.435Z,3.20
2022-10-22T02:43:55.154Z,4.50
2022-10-22T02:46:23.372Z,5.05
2022-10-22T02:48:50.416Z,5.53
2022-10-22T02:51:17.767Z,5.93
2022-10-22T02:53:44.630Z,5.55
2022-10-22T02:56:11.746Z,5.60
2022-10-22T02:58:38.617Z,5.75
2022-10-22T03:01:05.773Z,6.32
2022-10-22T03:03:32.952Z,6.65
2022-10-22T03:05:59.821Z,5.50
2022-10-22T03:08:26.733Z,6.13
2022-10-22T03:10:53.620Z,5.65
2022-10-22T03:13:20.715Z,5.82
2022-10-22T03:15:51.463Z,6.40
2022-10-22T03:18:18.827Z,4.90
2022-10-22T03:20:46.200Z,5.97
2022-10-22T03:23:18.099Z,5.95
2022-10-22T03:25:48.554Z,5.63
2022-10-22T03:28:17.754Z,5.40
2022-10-22T03:30:44.777Z,5.22
2022-10-22T03:33:11.645Z,6.38
2022-10-22T03:35:46.126Z,5.50
2022-10-22T03:38:15.018Z,7.47
2022-10-22T03:40:43.833Z,6.03
2022-10-22T03:43:11.072Z,5.75
2022-10-22T03:48:05.563Z,5.63
2022-10-22T03:50:32.470Z,4.60
2022-10-22T03:52:59.701Z,4.28
2022-10-22T03:55:26.686Z,4.22
2022-10-22T03:57:53.601Z,4.53
2022-10-22T04:00:20.522Z,4.95
2022-10-22T04:02:47.477Z,3.58
2022-10-22T04:07:41.845Z,4.03
2022-10-22T04:10:09.537Z,3.78
2022-10-22T04:12:36.496Z,4.40
2022-10-22T04:15:04.608Z,4.30
2022-10-22T04:17:36.144Z,4.30
2022-10-22T04:20:05.325Z,4.75
2022-10-22T04:22:35.267Z,5.03
2022-10-22T04:25:02.802Z,3.63
2022-10-22T04:27:31.793Z,3.95
2022-10-22T04:29:58.699Z,5.25
2022-10-22T04:32:27.556Z,4.05
2022-10-22T04:34:54.518Z,4.88
2022-10-22T04:37:21.691Z,3.83
2022-10-22T04:39:48.933Z,4.50
2022-10-22T04:42:15.820Z,4.35
2022-10-22T04:44:43.119Z,4.13
2022-10-22T04:47:09.990Z,4.05
2022-10-22T04:49:36.871Z,3.55
2022-10-22T04:52:03.836Z,4.43
2022-10-22T04:54:33.097Z,4.10
2022-10-22T04:57:00.555Z,4.28
2022-10-22T04:59:27.482Z,3.65
2022-10-22T05:01:54.439Z,4.43
2022-10-22T05:04:21.389Z,4.85
2022-10-22T05:06:48.492Z,4.63
2022-10-22T05:09:18.754Z,4.93
2022-10-22T05:11:49.961Z,4.57
2022-10-22T05:14:21.122Z,5.22
2022-10-22T05:16:49.396Z,5.28
2022-10-22T05:19:24.648Z,4.40
2022-10-22T05:21:53.235Z,4.22
2022-10-22T05:24:20.830Z,3.95
2022-10-22T05:26:54.813Z,4.68
2022-10-22T05:29:22.675Z,4.68
2022-10-22T05:31:50.130Z,6.57
2022-10-22T05:34:18.030Z,3.88
2022-10-22T05:36:45.037Z,4.60
2022-10-22T05:39:12.149Z,4.53
2022-10-22T05:41:39.140Z,4.47
2022-10-22T05:44:06.468Z,3.78
2022-10-22T05:46:36.879Z,4.63
2022-10-22T05:49:06.765Z,3.95
2022-10-22T05:51:36.663Z,4.15
2022-10-22T05:54:07.503Z,3.78
2022-10-22T05:56:36.696Z,6.72
2022-10-22T06:01:35.091Z,4.18
2022-10-22T06:04:05.883Z,3.75
2022-10-22T06:06:40.599Z,4.05
2022-10-22T06:09:25.350Z,4.03
2022-10-22T06:11:52.821Z,4.28
2022-10-22T06:14:21.305Z,3.90
2022-10-22T06:16:49.187Z,3.20
2022-10-22T06:19:19.542Z,4.75
2022-10-22T06:21:47.416Z,3.17
2022-10-22T06:24:15.189Z,3.17
2022-10-22T06:26:42.132Z,3.90
2022-10-22T06:29:09.740Z,3.97
2022-10-22T06:31:38.164Z,3.78
2022-10-22T06:34:08.463Z,3.67
2022-10-22T06:36:36.439Z,3.47
2022-10-22T06:39:04.963Z,3.53
2022-10-22T06:41:32.127Z,4.75
2022-10-22T06:44:00.249Z,3.28
2022-10-22T06:46:27.623Z,3.40
2022-10-22T06:49:03.451Z,3.97
2022-10-22T06:51:30.427Z,2.83
2022-10-22T06:53:58.611Z,2.22
2022-10-22T06:56:28.797Z,2.40
2022-10-22T06:58:57.585Z,2.80
2022-10-22T07:01:28.777Z,2.58
2022-10-22T07:03:56.495Z,2.70
2022-10-22T07:06:25.346Z,2.22
2022-10-22T07:08:53.176Z,2.78
2022-10-22T07:11:23.192Z,4.28
2022-10-22T07:13:51.125Z,2.78
2022-10-22T07:16:18.914Z,2.83
2022-10-22T07:18:46.824Z,2.33
2022-10-22T07:21:17.190Z,2.88
2022-10-22T07:23:45.228Z,2.45
2022-10-22T07:26:16.357Z,2.80
2022-10-22T07:28:43.808Z,2.47
2022-10-22T07:31:14.166Z,2.67
2022-10-22T07:33:41.312Z,2.67
2022-10-22T07:36:17.371Z,4.18
2022-10-22T07:38:53.153Z,2.38
2022-10-22T07:41:20.076Z,2.70
2022-10-22T07:43:46.968Z,2.28
2022-10-22T07:46:13.902Z,1.55
2022-10-22T07:48:41.301Z,2.10
2022-10-22T07:51:08.453Z,1.48
2022-10-22T07:53:35.729Z,1.95
2022-10-22T07:56:03.143Z,4.15
2022-10-22T07:58:30.338Z,2.35
2022-10-22T08:01:01.565Z,2.58
2022-10-22T08:03:29.628Z,3.05
2022-10-22T08:05:56.596Z,1.92
2022-10-22T08:08:27.067Z,2.05
2022-10-22T08:11:00.012Z,2.58
2022-10-22T08:13:30.127Z,2.20
2022-10-22T08:16:01.481Z,3.40
2022-10-22T08:18:29.283Z,2.03
2022-10-22T08:20:56.897Z,2.95
2022-10-22T08:23:26.069Z,1.67
2022-10-22T08:25:54.778Z,2.47
2022-10-22T08:28:22.372Z,2.40
2022-10-22T08:30:49.850Z,1.25
2022-10-22T08:33:16.840Z,1.70
2022-10-22T08:35:49.619Z,2.50
2022-10-22T08:38:16.884Z,1.80
2022-10-22T08:43:55.820Z,1.77
2022-10-22T08:49:14.049Z,2.20
2022-10-22T08:51:41.110Z,2.47
2022-10-22T08:54:39.180Z,2.22
2022-10-22T08:57:08.976Z,2.22
2022-10-22T08:59:57.889Z,1.83
2022-10-22T09:02:46.097Z,3.05
2022-10-22T09:05:33.140Z,3.22
2022-10-22T09:08:00.082Z,2.20
2022-10-22T09:10:33.682Z,1.77
2022-10-22T09:13:00.550Z,2.40
2022-10-22T09:15:28.017Z,1.90
2022-10-22T09:19:03.501Z,1.88
2022-10-22T09:21:43.378Z,3.22
2022-10-22T09:24:38.813Z,2.40
2022-10-22T09:27:16.469Z,2.50
2022-10-22T09:29:45.959Z,2.22
2022-10-22T09:32:14.559Z,3.70
2022-10-22T09:34:44.364Z,4.13
2022-10-22T09:37:11.771Z,2.10
2022-10-22T09:39:47.642Z,2.53
2022-10-22T09:42:20.320Z,3.53
2022-10-22T09:44:59.794Z,2.17
2022-10-22T09:47:43.133Z,3.00
2022-10-22T09:51:05.706Z,2.15
2022-10-22T09:53:39.349Z,3.30
2022-10-22T09:56:38.816Z,2.75
2022-10-22T09:59:14.829Z,2.83
2022-10-22T10:01:42.023Z,3.03
2022-10-22T10:04:13.361Z,3.58
2022-10-22T10:06:42.849Z,4.68
2022-10-22T10:09:18.395Z,3.40
2022-10-22T10:15:27.455Z,2.50
2022-10-22T10:18:37.809Z,3.03
2022-10-22T10:21:04.737Z,3.35
2022-10-22T10:24:02.690Z,2.75
2022-10-22T10:26:57.378Z,1.92
2022-10-22T10:30:02.137Z,2.17
2022-10-22T10:33:17.038Z,2.95
2022-10-22T10:36:08.541Z,2.53
2022-10-22T10:39:11.487Z,4.55
2022-10-22T10:42:05.363Z,2.45
2022-10-22T10:45:07.857Z,2.28
2022-10-22T10:48:09.764Z,4.38
2022-10-22T10:51:03.469Z,2.25
2022-10-22T10:54:07.555Z,2.45
2022-10-22T10:56:45.721Z,2.05
2022-10-22T10:59:37.293Z,2.42
2022-10-22T11:02:51.151Z,1.98
2022-10-22T11:05:28.825Z,2.10
2022-10-22T11:08:07.866Z,2.10
2022-10-22T11:10:46.727Z,3.42
2022-10-22T11:13:37.150Z,2.17
2022-10-22T11:16:37.615Z,2.35
2022-10-22T11:19:46.264Z,1.77
2022-10-22T11:22:50.475Z,2.13
2022-10-22T11:25:50.194Z,2.20
2022-10-22T11:28:34.546Z,2.72
2022-10-22T11:31:06.469Z,2.33
2022-10-22T11:34:09.863Z,1.80
2022-10-22T11:36:43.729Z,2.80
2022-10-22T11:39:40.072Z,2.10
2022-10-22T11:42:17.894Z,1.75
2022-10-22T11:45:24.669Z,1.58
2022-10-22T11:47:58.406Z,1.98
2022-10-22T11:50:56.606Z,2.20
2022-10-22T11:53:30.600Z,2.17
2022-10-22T11:56:13.185Z,2.15
2022-10-22T11:58:50.833Z,1.52
2022-10-22T12:01:40.628Z,1.95
2022-10-22T12:04:22.315Z,1.73
2022-10-22T12:07:02.254Z,1.20
2022-10-22T12:09:32.883Z,1.30
2022-10-22T12:12:16.356Z,1.13
2022-10-22T12:14:57.104Z,1.70
2022-10-22T12:17:25.291Z,1.25
2022-10-22T12:20:17.535Z,1.90
2022-10-22T12:22:44.672Z,1.90
2022-10-22T12:25:25.073Z,2.75
2022-10-22T12:28:00.861Z,2.75
2022-10-22T12:30:34.496Z,1.33
2022-10-22T12:33:06.906Z,1.40
2022-10-22T12:35:45.492Z,1.55
2022-10-22T12:38:20.237Z,1.70
2022-10-22T12:40:50.370Z,3.47
2022-10-22T12:43:29.982Z,2.00
2022-10-22T12:45:59.054Z,1.10
2022-10-22T12:48:30.836Z,1.25
2022-10-22T12:51:04.111Z,1.27
2022-10-22T12:53:44.412Z,1.13
2022-10-22T12:56:16.537Z,1.45
2022-10-22T12:59:05.357Z,1.98
2022-10-22T13:01:39.222Z,1.27
2022-10-22T13:04:27.025Z,0.90
2022-10-22T13:07:18.386Z,3.28
2022-10-22T13:09:59.340Z,1.58
2022-10-22T13:12:35.010Z,2.75
2022-10-22T13:15:28.672Z,1.88
2022-10-22T13:18:22.879Z,1.08
2022-10-22T13:21:01.754Z,1.10
2022-10-22T13:23:33.990Z,1.00
2022-10-22T13:26:16.687Z,1.65
2022-10-22T13:28:54.645Z,1.48
2022-10-22T13:31:26.785Z,1.00
2022-10-22T13:34:03.645Z,1.75
2022-10-22T13:36:33.557Z,1.42
2022-10-22T13:39:00.496Z,1.38
2022-10-22T13:41:32.252Z,1.63
2022-10-22T13:43:59.445Z,1.40
2022-10-22T13:46:27.110Z,2.25
2022-10-22T13:48:56.306Z,1.35
2022-10-22T13:51:30.827Z,1.20
2022-10-22T13:53:57.933Z,1.65
2022-10-22T13:56:24.846Z,2.00
2022-10-22T13:58:51.843Z,1.88
2022-10-22T14:01:27.501Z,1.65
2022-10-22T14:03:58.379Z,1.10
2022-10-22T14:06:31.414Z,2.50
2022-10-22T14:09:04.988Z,2.42
2022-10-22T14:11:32.676Z,1.42
2022-10-22T14:13:59.714Z,1.30
2022-10-22T14:16:28.350Z,1.67
2022-10-22T14:18:56.168Z,1.48
2022-10-22T14:21:23.056Z,2.10
2022-10-22T14:23:51.650Z,1.65
2022-10-22T14:26:24.714Z,1.58
2022-10-22T14:34:10.521Z,2.40
2022-10-22T14:36:37.773Z,1.58
2022-10-22T14:39:04.651Z,2.80
2022-10-22T14:41:31.819Z,2.33
2022-10-22T14:44:00.007Z,1.98
2022-10-22T14:46:27.009Z,2.17
2022-10-22T14:48:54.077Z,2.33
2022-10-22T14:51:22.008Z,2.08
2022-10-22T14:53:49.684Z,2.22
2022-10-22T14:56:21.429Z,2.00
2022-10-22T14:58:49.236Z,2.28
2022-10-22T15:01:16.818Z,2.53
2022-10-22T15:03:43.895Z,2.55
2022-10-22T15:06:10.798Z,2.17
2022-10-22T15:08:38.042Z,2.53
2022-10-22T15:11:11.896Z,1.92
2022-10-22T15:13:40.685Z,2.50
2022-10-22T15:16:10.352Z,2.40
2022-10-22T15:18:37.706Z,2.33
2022-10-22T15:21:08.898Z,2.72
2022-10-22T15:23:39.171Z,1.88
2022-10-22T15:26:11.743Z,2.13
2022-10-22T15:28:40.312Z,1.90
2022-10-22T15:31:08.838Z,1.55
2022-10-22T15:33:36.152Z,2.85
2022-10-22T15:36:15.612Z,2.10
2022-10-22T15:38:42.495Z,3.67
2022-10-22T15:41:11.907Z,2.30
2022-10-22T15:43:38.840Z,3.08
2022-10-22T15:46:18.041Z,2.75
2022-10-22T15:48:45.944Z,2.60
2022-10-22T15:51:18.888Z,2.35
2022-10-22T15:53:54.444Z,3.22
2022-10-22T15:58:54.324Z,2.53
2022-10-22T16:01:21.496Z,2.30
2022-10-22T16:03:52.584Z,2.28
2022-10-22T16:06:19.866Z,2.72
2022-10-22T16:08:47.053Z,4.70
2022-10-22T16:11:13.962Z,2.30
2022-10-22T16:13:40.882Z,3.53
2022-10-22T16:16:08.284Z,2.10
2022-10-22T16:18:35.353Z,2.30
2022-10-22T16:21:02.785Z,2.80
2022-10-22T16:23:29.907Z,3.47
2022-10-22T16:25:56.946Z,2.17
2022-10-22T16:28:24.051Z,2.00
2022-10-22T16:30:50.977Z,2.70
2022-10-22T16:33:17.849Z,2.95
2022-10-22T16:35:44.734Z,3.63
2022-10-22T16:38:12.795Z,3.20
2022-10-22T16:40:40.364Z,4.63
2022-10-22T16:43:07.366Z,4.72
2022-10-22T16:45:34.199Z,6.43
2022-10-22T16:48:01.291Z,5.00
2022-10-22T16:50:28.188Z,4.32
2022-10-22T16:52:55.191Z,4.18
2022-10-22T16:55:22.164Z,4.38
2022-10-22T16:57:53.434Z,4.20
2022-10-22T17:00:21.038Z,3.03
2022-10-22T17:02:54.384Z,2.60
2022-10-22T17:05:22.012Z,2.60
2022-10-22T17:07:49.029Z,2.67
2022-10-22T17:10:19.327Z,2.85
2022-10-22T17:12:47.722Z,3.22
2022-10-22T17:15:15.175Z,2.58
2022-10-22T17:17:42.012Z,2.72
2022-10-22T17:20:09.108Z,2.72
2022-10-22T17:22:35.967Z,3.30
2022-10-22T17:25:19.882Z,2.40
2022-10-22T17:27:46.811Z,2.33
2022-10-22T17:30:20.942Z,3.78
2022-10-22T17:32:50.340Z,1.65
2022-10-22T17:35:18.028Z,2.85
2022-10-22T17:37:44.934Z,2.67
2022-10-22T17:40:13.687Z,2.40
2022-10-22T17:42:40.851Z,1.88
2022-10-22T17:45:08.199Z,2.25
2022-10-22T17:47:36.413Z,2.80
2022-10-22T17:50:03.538Z,2.20
2022-10-22T17:52:30.992Z,0.98
2022-10-22T17:54:57.969Z,1.40
2022-10-22T17:57:24.932Z,1.70
2022-10-22T17:59:51.833Z,2.08
2022-10-22T18:02:18.968Z,2.28
2022-10-22T18:04:46.248Z,2.00
2022-10-22T18:07:13.515Z,2.80
2022-10-22T18:09:42.958Z,2.20
2022-10-22T18:12:12.814Z,3.28
2022-10-22T18:14:40.153Z,3.67
2022-10-22T18:17:07.032Z,3.40
2022-10-22T18:19:34.046Z,4.68
2022-10-22T18:22:00.916Z,3.95
2022-10-22T18:24:28.022Z,3.22
2022-10-22T18:26:54.862Z,2.58
2022-10-22T18:29:21.762Z,2.13
2022-10-22T18:31:49.528Z,2.75
2022-10-22T18:34:19.107Z,3.03
2022-10-22T18:36:48.826Z,3.53
2022-10-22T18:39:16.496Z,1.95
2022-10-22T18:41:43.682Z,4.20
2022-10-22T18:44:14.066Z,2.88
2022-10-22T18:46:41.037Z,2.50
2022-10-22T18:49:08.127Z,3.03
2022-10-22T18:51:35.998Z,2.55
2022-10-22T18:54:11.262Z,2.42
2022-10-22T18:56:48.549Z,5.75
2022-10-22T18:59:22.818Z,5.13
2022-10-22T19:01:52.123Z,3.88
2022-10-22T19:04:19.162Z,4.03
2022-10-22T19:06:46.196Z,3.53
2022-10-22T19:09:15.281Z,2.78
2022-10-22T19:11:44.833Z,3.35
2022-10-22T19:14:13.968Z,3.33
2022-10-22T19:16:40.940Z,3.75
2022-10-22T19:19:08.413Z,2.42
2022-10-22T19:21:35.665Z,2.30
2022-10-22T19:24:02.736Z,3.33
2022-10-22T19:26:30.977Z,2.15
2022-10-22T19:28:59.504Z,1.70
2022-10-22T19:31:27.675Z,2.38
2022-10-22T19:33:55.384Z,2.17
2022-10-22T19:36:25.259Z,2.53
2022-10-22T19:38:52.679Z,2.65
2022-10-22T19:41:22.453Z,1.77
2022-10-22T19:43:52.445Z,2.90
2022-10-22T19:46:21.257Z,3.45
2022-10-22T19:48:49.730Z,2.30
2022-10-22T19:51:23.021Z,2.75
2022-10-22T19:53:50.518Z,2.58
2022-10-22T19:56:20.710Z,1.70
2022-10-22T19:58:48.066Z,2.67
2022-10-22T20:01:17.779Z,2.53
2022-10-22T20:03:45.705Z,4.22
2022-10-22T20:06:15.605Z,3.15
2022-10-22T20:08:42.801Z,3.92
2022-10-22T20:11:17.204Z,2.58
2022-10-22T20:13:46.772Z,2.33
2022-10-22T20:16:25.955Z,2.95
2022-10-22T20:18:53.382Z,5.53
2022-10-22T20:21:22.045Z,5.57
2022-10-22T20:23:53.557Z,5.60
2022-10-22T20:26:21.088Z,5.18
2022-10-22T20:28:47.975Z,6.22
2022-10-22T20:31:20.137Z,7.55
2022-10-22T20:33:48.056Z,8.13
2022-10-22T20:36:22.420Z,6.10
2022-10-22T20:38:50.622Z,4.95
2022-10-22T20:41:22.094Z,5.22
2022-10-22T20:43:51.476Z,5.70
2022-10-22T20:46:23.001Z,5.55
2022-10-22T20:48:53.481Z,4.88
2022-10-22T20:51:21.082Z,3.80
2022-10-22T20:53:48.282Z,4.07
2022-10-22T20:56:17.012Z,3.65
2022-10-22T20:58:48.295Z,5.07
2022-10-22T21:01:28.032Z,3.55
2022-10-22T21:03:55.320Z,3.80
2022-10-22T21:06:23.128Z,3.63
2022-10-22T21:08:51.755Z,3.45
2022-10-22T21:11:19.468Z,3.03
2022-10-22T21:13:46.914Z,4.35
2022-10-22T21:16:15.110Z,3.33
2022-10-22T21:18:42.284Z,4.70
2022-10-22T21:21:09.688Z,4.30
2022-10-22T21:23:37.469Z,5.88
2022-10-22T21:26:05.095Z,5.75
2022-10-22T21:28:36.956Z,5.35
2022-10-22T21:31:07.658Z,5.50
2022-10-22T21:33:40.493Z,5.65
2022-10-22T21:36:09.082Z,5.63
2022-10-22T21:38:37.510Z,4.70
2022-10-22T21:41:11.326Z,6.40
2022-10-22T21:43:40.152Z,6.57
2022-10-22T21:46:10.969Z,4.53
2022-10-22T21:48:40.291Z,5.13
2022-10-22T21:51:10.809Z,4.25
2022-10-22T21:53:38.968Z,5.57
2022-10-22T21:56:07.582Z,5.55
2022-10-22T21:58:38.133Z,5.38
2022-10-22T22:01:05.856Z,4.97
2022-10-22T22:03:33.228Z,6.25
2022-10-22T22:06:03.757Z,5.68
2022-10-22T22:08:31.348Z,5.95
2022-10-22T22:11:08.458Z,4.88
2022-10-22T22:13:35.665Z,4.88
2022-10-22T22:16:15.856Z,6.18
2022-10-22T22:18:42.745Z,5.65
2022-10-22T22:21:21.130Z,5.53
2022-10-22T22:23:50.019Z,5.75
2022-10-22T22:26:25.401Z,5.00
2022-10-22T22:28:56.764Z,4.30
2022-10-22T22:31:27.220Z,4.85
2022-10-22T22:34:03.887Z,4.45
2022-10-22T22:36:40.736Z,3.83
2022-10-22T22:39:16.790Z,5.25
2022-10-22T22:41:44.407Z,4.75
2022-10-22T22:44:12.869Z,4.70
2022-10-22T22:46:40.254Z,3.97
2022-10-22T22:49:07.567Z,4.60
2022-10-22T22:51:34.821Z,5.03
2022-10-22T22:54:02.206Z,3.38
2022-10-22T22:56:32.319Z,3.83
2022-10-22T22:58:59.434Z,4.68
2022-10-22T23:01:32.590Z,4.28
2022-10-22T23:04:02.147Z,4.70
2022-10-22T23:06:36.197Z,4.78
2022-10-22T23:09:09.699Z,4.40
2022-10-22T23:11:37.263Z,3.83
2022-10-22T23:14:07.012Z,3.90
2022-10-22T23:16:37.473Z,3.78
2022-10-22T23:19:05.582Z,3.95
2022-10-22T23:21:38.937Z,4.57
2022-10-22T23:24:11.549Z,5.53
2022-10-22T23:26:44.625Z,4.03
2022-10-22T23:29:19.479Z,3.78
2022-10-22T23:31:47.928Z,4.13
2022-10-22T23:36:46.214Z,6.13
2022-10-22T23:39:18.250Z,5.63
2022-10-22T23:41:45.809Z,4.78
2022-10-22T23:44:13.776Z,6.30
2022-10-22T23:46:42.481Z,5.32
2022-10-22T23:49:10.926Z,5.35
2022-10-22T23:51:39.861Z,6.47
2022-10-22T23:54:11.415Z,5.82
2022-10-22T23:56:38.823Z,6.10
2022-10-22T23:59:06.184Z,6.65
